sensor_id;sensor_type;location;lat;lon;timestamp;pressure;altitude;pressure_sealevel;temperature;humidity
78839;BME280;68189;47.190;27.558;2023-03-01T00:02:15;101076.04;;;20.96;47.72
78839;BME280;68189;47.190;27.558;2023-03-01T00:04:45;101072.31;;;20.96;47.66
78839;BME280;68189;47.190;27.558;2023-03-01T00:07:15;101070.58;;;20.96;47.62
78839;BME280;68189;47.190;27.558;2023-03-01T00:09:46;101071.67;;;20.95;47.58
78839;BME280;68189;47.190;27.558;2023-03-01T00:12:16;101068.04;;;20.94;47.72
78839;BME280;68189;47.190;27.558;2023-03-01T00:14:47;101070.86;;;20.94;47.58
78839;BME280;68189;47.190;27.558;2023-03-01T00:17:17;101067.73;;;20.93;47.62
78839;BME280;68189;47.190;27.558;2023-03-01T00:19:47;101067.23;;;20.92;47.64
78839;BME280;68189;47.190;27.558;2023-03-01T00:22:18;101068.84;;;20.92;47.67
78839;BME280;68189;47.190;27.558;2023-03-01T00:24:48;101063.45;;;20.91;47.54
78839;BME280;68189;47.190;27.558;2023-03-01T00:27:19;101060.48;;;20.91;47.61
78839;BME280;68189;47.190;27.558;2023-03-01T00:29:49;101056.29;;;20.90;47.61
78839;BME280;68189;47.190;27.558;2023-03-01T00:32:20;101057.20;;;20.89;47.55
78839;BME280;68189;47.190;27.558;2023-03-01T00:34:50;101056.70;;;20.89;47.64
78839;BME280;68189;47.190;27.558;2023-03-01T00:37:25;101053.95;;;20.88;47.63
78839;BME280;68189;47.190;27.558;2023-03-01T00:39:55;101053.95;;;20.88;47.61
78839;BME280;68189;47.190;27.558;2023-03-01T00:42:25;101053.98;;;20.87;47.60
78839;BME280;68189;47.190;27.558;2023-03-01T00:44:56;101053.34;;;20.86;47.58
78839;BME280;68189;47.190;27.558;2023-03-01T00:47:26;101050.36;;;20.85;47.59
78839;BME280;68189;47.190;27.558;2023-03-01T00:49:58;101048.81;;;20.85;47.52
78839;BME280;68189;47.190;27.558;2023-03-01T00:52:28;101049.73;;;20.84;47.57
78839;BME280;68189;47.190;27.558;2023-03-01T00:54:59;101047.64;;;20.84;47.56
78839;BME280;68189;47.190;27.558;2023-03-01T00:57:29;101040.26;;;20.83;47.53
78839;BME280;68189;47.190;27.558;2023-03-01T00:59:59;101031.46;;;20.83;47.55
78839;BME280;68189;47.190;27.558;2023-03-01T01:02:31;101023.59;;;20.81;47.61
78839;BME280;68189;47.190;27.558;2023-03-01T01:05:02;101020.27;;;20.80;47.59
78839;BME280;68189;47.190;27.558;2023-03-01T01:07:33;101015.52;;;20.80;47.54
78839;BME280;68189;47.190;27.558;2023-03-01T01:10:03;101010.48;;;20.79;47.49
78839;BME280;68189;47.190;27.558;2023-03-01T01:12:34;101009.42;;;20.79;47.52
78839;BME280;68189;47.190;27.558;2023-03-01T01:15:05;101008.39;;;20.78;47.59
78839;BME280;68189;47.190;27.558;2023-03-01T01:17:36;101003.19;;;20.77;47.50
78839;BME280;68189;47.190;27.558;2023-03-01T01:20:08;101002.86;;;20.76;47.53
78839;BME280;68189;47.190;27.558;2023-03-01T01:22:38;101005.73;;;20.76;47.63
78839;BME280;68189;47.190;27.558;2023-03-01T01:25:10;100999.56;;;20.75;47.54
78839;BME280;68189;47.190;27.558;2023-03-01T01:27:40;100998.20;;;20.75;47.53
78839;BME280;68189;47.190;27.558;2023-03-01T01:30:12;100997.19;;;20.74;47.51
78839;BME280;68189;47.190;27.558;2023-03-01T01:32:43;100991.60;;;20.73;47.52
78839;BME280;68189;47.190;27.558;2023-03-01T01:35:13;100988.81;;;20.72;47.49
78839;BME280;68189;47.190;27.558;2023-03-01T01:37:44;100985.67;;;20.71;47.49
78839;BME280;68189;47.190;27.558;2023-03-01T01:40:15;100990.64;;;20.71;47.50
78839;BME280;68189;47.190;27.558;2023-03-01T01:42:45;100990.81;;;20.71;47.44
78839;BME280;68189;47.190;27.558;2023-03-01T01:45:33;100987.13;;;20.70;47.51
78839;BME280;68189;47.190;27.558;2023-03-01T01:48:06;100978.68;;;20.70;47.49
78839;BME280;68189;47.190;27.558;2023-03-01T01:50:42;100976.05;;;20.70;47.36
78839;BME280;68189;47.190;27.558;2023-03-01T01:53:17;100970.45;;;20.69;47.54
78839;BME280;68189;47.190;27.558;2023-03-01T01:55:54;100965.47;;;20.69;47.49
78839;BME280;68189;47.190;27.558;2023-03-01T01:58:27;100962.85;;;20.69;47.41
78839;BME280;68189;47.190;27.558;2023-03-01T02:00:59;100961.95;;;20.69;47.50
78839;BME280;68189;47.190;27.558;2023-03-01T02:03:32;100957.25;;;20.68;47.47
78839;BME280;68189;47.190;27.558;2023-03-01T02:06:15;100953.70;;;20.68;47.44
78839;BME280;68189;47.190;27.558;2023-03-01T02:08:50;100946.35;;;20.67;47.50
78839;BME280;68189;47.190;27.558;2023-03-01T02:11:22;100945.84;;;20.67;47.48
78839;BME280;68189;47.190;27.558;2023-03-01T02:13:54;100944.76;;;20.67;47.51
78839;BME280;68189;47.190;27.558;2023-03-01T02:16:26;100943.52;;;20.67;47.39
78839;BME280;68189;47.190;27.558;2023-03-01T02:18:58;100942.56;;;20.66;47.36
78839;BME280;68189;47.190;27.558;2023-03-01T02:21:41;100940.63;;;20.65;47.32
78839;BME280;68189;47.190;27.558;2023-03-01T02:24:21;100938.55;;;20.65;47.44
78839;BME280;68189;47.190;27.558;2023-03-01T02:26:56;100941.83;;;20.66;47.47
78839;BME280;68189;47.190;27.558;2023-03-01T02:29:28;100939.84;;;20.67;47.37
78839;BME280;68189;47.190;27.558;2023-03-01T02:32:00;100938.29;;;20.66;47.43
78839;BME280;68189;47.190;27.558;2023-03-01T02:34:32;100932.30;;;20.66;47.32
78839;BME280;68189;47.190;27.558;2023-03-01T02:37:06;100933.55;;;20.66;47.33
78839;BME280;68189;47.190;27.558;2023-03-01T02:39:42;100939.08;;;20.65;47.35
78839;BME280;68189;47.190;27.558;2023-03-01T02:42:18;100939.39;;;20.65;47.35
78839;BME280;68189;47.190;27.558;2023-03-01T02:44:51;100938.77;;;20.64;47.42
78839;BME280;68189;47.190;27.558;2023-03-01T02:47:22;100940.88;;;20.64;47.30
78839;BME280;68189;47.190;27.558;2023-03-01T02:49:52;100940.69;;;20.64;47.37
78839;BME280;68189;47.190;27.558;2023-03-01T02:52:33;100941.14;;;20.66;47.26
78839;BME280;68189;47.190;27.558;2023-03-01T02:55:10;100934.27;;;20.65;47.26
78839;BME280;68189;47.190;27.558;2023-03-01T02:57:43;100934.98;;;20.65;47.39
78839;BME280;68189;47.190;27.558;2023-03-01T03:00:17;100933.59;;;20.65;47.20
78839;BME280;68189;47.190;27.558;2023-03-01T03:02:50;100933.27;;;20.64;47.28
78839;BME280;68189;47.190;27.558;2023-03-01T03:05:22;100935.42;;;20.64;47.22
78839;BME280;68189;47.190;27.558;2023-03-01T03:07:53;100933.61;;;20.65;47.29
78839;BME280;68189;47.190;27.558;2023-03-01T03:10:25;100932.40;;;20.64;47.31
78839;BME280;68189;47.190;27.558;2023-03-01T03:12:59;100926.58;;;20.64;47.31
78839;BME280;68189;47.190;27.558;2023-03-01T03:15:30;100927.66;;;20.64;47.23
78839;BME280;68189;47.190;27.558;2023-03-01T03:18:07;100929.60;;;20.63;47.25
78839;BME280;68189;47.190;27.558;2023-03-01T03:20:41;100927.55;;;20.62;47.24
78839;BME280;68189;47.190;27.558;2023-03-01T03:23:12;100922.09;;;20.62;47.25
78839;BME280;68189;47.190;27.558;2023-03-01T03:25:42;100917.67;;;20.62;47.26
78839;BME280;68189;47.190;27.558;2023-03-01T03:28:13;100921.92;;;20.62;47.21
78839;BME280;68189;47.190;27.558;2023-03-01T03:30:44;100917.16;;;20.62;47.23
78839;BME280;68189;47.190;27.558;2023-03-01T03:33:15;100916.80;;;20.62;47.28
78839;BME280;68189;47.190;27.558;2023-03-01T03:35:49;100915.07;;;20.62;47.21
78839;BME280;68189;47.190;27.558;2023-03-01T03:38:20;100918.27;;;20.61;47.16
78839;BME280;68189;47.190;27.558;2023-03-01T03:40:52;100918.48;;;20.60;47.17
78839;BME280;68189;47.190;27.558;2023-03-01T03:43:23;100918.30;;;20.61;47.22
78839;BME280;68189;47.190;27.558;2023-03-01T03:45:53;100916.18;;;20.61;47.30
78839;BME280;68189;47.190;27.558;2023-03-01T03:48:26;100914.95;;;20.61;47.15
78839;BME280;68189;47.190;27.558;2023-03-01T03:50:57;100914.93;;;20.61;47.28
78839;BME280;68189;47.190;27.558;2023-03-01T03:53:29;100916.35;;;20.61;47.23
78839;BME280;68189;47.190;27.558;2023-03-01T03:55:59;100914.50;;;20.59;47.19
78839;BME280;68189;47.190;27.558;2023-03-01T03:58:30;100914.91;;;20.59;47.14
78839;BME280;68189;47.190;27.558;2023-03-01T04:01:01;100917.59;;;20.58;47.08
78839;BME280;68189;47.190;27.558;2023-03-01T04:03:32;100913.69;;;20.58;47.20
78839;BME280;68189;47.190;27.558;2023-03-01T04:06:04;100910.35;;;20.58;47.17
78839;BME280;68189;47.190;27.558;2023-03-01T04:08:34;100905.42;;;20.58;47.10
78839;BME280;68189;47.190;27.558;2023-03-01T04:11:05;100897.80;;;20.58;47.13
78839;BME280;68189;47.190;27.558;2023-03-01T04:13:50;100890.58;;;20.58;47.16
78839;BME280;68189;47.190;27.558;2023-03-01T04:16:21;100888.61;;;20.59;47.08
78839;BME280;68189;47.190;27.558;2023-03-01T04:18:52;100891.49;;;20.58;47.03
78839;BME280;68189;47.190;27.558;2023-03-01T04:21:23;100890.50;;;20.57;47.10
78839;BME280;68189;47.190;27.558;2023-03-01T04:23:54;100892.27;;;20.56;47.13
78839;BME280;68189;47.190;27.558;2023-03-01T04:26:24;100891.20;;;20.57;47.12
78839;BME280;68189;47.190;27.558;2023-03-01T04:28:55;100891.35;;;20.57;47.07
78839;BME280;68189;47.190;27.558;2023-03-01T04:31:26;100889.77;;;20.57;47.06
78839;BME280;68189;47.190;27.558;2023-03-01T04:33:57;100893.86;;;20.56;47.03
78839;BME280;68189;47.190;27.558;2023-03-01T04:36:29;100892.49;;;20.56;47.04
78839;BME280;68189;47.190;27.558;2023-03-01T04:39:00;100893.05;;;20.55;47.07
78839;BME280;68189;47.190;27.558;2023-03-01T04:41:41;100895.80;;;20.54;47.06
78839;BME280;68189;47.190;27.558;2023-03-01T04:44:12;100899.42;;;20.55;47.07
78839;BME280;68189;47.190;27.558;2023-03-01T04:46:42;100905.93;;;20.55;47.04
78839;BME280;68189;47.190;27.558;2023-03-01T04:49:12;100907.36;;;20.55;47.00
78839;BME280;68189;47.190;27.558;2023-03-01T04:51:42;100907.90;;;20.55;47.05
78839;BME280;68189;47.190;27.558;2023-03-01T04:54:13;100906.08;;;20.55;47.10
78839;BME280;68189;47.190;27.558;2023-03-01T04:56:43;100911.41;;;20.55;47.03
78839;BME280;68189;47.190;27.558;2023-03-01T04:59:14;100911.52;;;20.56;47.05
78839;BME280;68189;47.190;27.558;2023-03-01T05:01:44;100915.91;;;20.57;47.08
78839;BME280;68189;47.190;27.558;2023-03-01T05:04:14;100918.16;;;20.58;47.00
78839;BME280;68189;47.190;27.558;2023-03-01T05:06:45;100919.71;;;20.58;46.95
78839;BME280;68189;47.190;27.558;2023-03-01T05:09:16;100924.81;;;20.58;47.09
78839;BME280;68189;47.190;27.558;2023-03-01T05:11:47;100926.15;;;20.59;47.07
78839;BME280;68189;47.190;27.558;2023-03-01T05:14:18;100927.35;;;20.60;47.04
78839;BME280;68189;47.190;27.558;2023-03-01T05:16:49;100929.77;;;20.61;46.92
78839;BME280;68189;47.190;27.558;2023-03-01T05:19:19;100929.05;;;20.61;46.95
78839;BME280;68189;47.190;27.558;2023-03-01T05:21:51;100927.09;;;20.61;46.91
78839;BME280;68189;47.190;27.558;2023-03-01T05:24:35;100926.70;;;20.62;47.01
78839;BME280;68189;47.190;27.558;2023-03-01T05:27:05;100926.14;;;20.63;47.02
78839;BME280;68189;47.190;27.558;2023-03-01T05:29:36;100924.34;;;20.63;47.01
78839;BME280;68189;47.190;27.558;2023-03-01T05:32:08;100925.04;;;20.63;46.94
78839;BME280;68189;47.190;27.558;2023-03-01T05:34:43;100929.02;;;20.64;46.96
78839;BME280;68189;47.190;27.558;2023-03-01T05:37:15;100929.29;;;20.67;46.95
78839;BME280;68189;47.190;27.558;2023-03-01T05:39:45;100928.45;;;20.68;46.83
78839;BME280;68189;47.190;27.558;2023-03-01T05:42:15;100932.29;;;20.69;46.81
78839;BME280;68189;47.190;27.558;2023-03-01T05:44:45;100934.09;;;20.69;46.77
78839;BME280;68189;47.190;27.558;2023-03-01T05:47:16;100936.31;;;20.70;46.78
78839;BME280;68189;47.190;27.558;2023-03-01T05:49:46;100937.15;;;20.71;46.79
78839;BME280;68189;47.190;27.558;2023-03-01T05:52:18;100940.09;;;20.72;46.85
78839;BME280;68189;47.190;27.558;2023-03-01T05:54:48;100944.95;;;20.74;46.75
78839;BME280;68189;47.190;27.558;2023-03-01T05:57:18;100948.45;;;20.74;46.76
78839;BME280;68189;47.190;27.558;2023-03-01T05:59:49;100950.40;;;20.77;46.78
78839;BME280;68189;47.190;27.558;2023-03-01T06:02:20;100950.63;;;20.79;46.72
78839;BME280;68189;47.190;27.558;2023-03-01T06:04:50;100948.29;;;20.80;46.72
78839;BME280;68189;47.190;27.558;2023-03-01T06:07:20;100948.55;;;20.81;46.56
78839;BME280;68189;47.190;27.558;2023-03-01T06:09:51;100948.75;;;20.84;46.68
78839;BME280;68189;47.190;27.558;2023-03-01T06:12:21;100946.35;;;20.86;46.49
78839;BME280;68189;47.190;27.558;2023-03-01T06:14:52;100943.25;;;20.87;46.66
78839;BME280;68189;47.190;27.558;2023-03-01T06:17:23;100944.48;;;20.90;46.64
78839;BME280;68189;47.190;27.558;2023-03-01T06:19:53;100944.58;;;20.94;46.54
78839;BME280;68189;47.190;27.558;2023-03-01T06:22:24;100944.58;;;20.98;46.49
78839;BME280;68189;47.190;27.558;2023-03-01T06:24:54;100946.35;;;21.00;46.53
78839;BME280;68189;47.190;27.558;2023-03-01T06:27:25;100944.82;;;21.05;46.57
78839;BME280;68189;47.190;27.558;2023-03-01T06:29:55;100944.10;;;21.11;46.83
78839;BME280;68189;47.190;27.558;2023-03-01T06:32:26;100943.36;;;21.14;46.79
78839;BME280;68189;47.190;27.558;2023-03-01T06:34:56;100940.77;;;21.16;46.77
78839;BME280;68189;47.190;27.558;2023-03-01T06:37:27;100948.59;;;21.18;46.71
78839;BME280;68189;47.190;27.558;2023-03-01T06:39:58;100944.60;;;21.25;46.74
78839;BME280;68189;47.190;27.558;2023-03-01T06:42:28;100943.56;;;21.34;46.62
78839;BME280;68189;47.190;27.558;2023-03-01T06:44:58;100944.30;;;21.42;46.45
78839;BME280;68189;47.190;27.558;2023-03-01T06:47:29;100948.16;;;21.51;46.37
78839;BME280;68189;47.190;27.558;2023-03-01T06:49:59;100945.69;;;21.57;46.90
78839;BME280;68189;47.190;27.558;2023-03-01T06:52:29;100943.58;;;21.65;46.96
78839;BME280;68189;47.190;27.558;2023-03-01T06:55:00;100941.42;;;21.71;46.92
78839;BME280;68189;47.190;27.558;2023-03-01T06:57:31;100942.10;;;21.74;46.96
78839;BME280;68189;47.190;27.558;2023-03-01T07:00:01;100942.84;;;21.82;46.89
78839;BME280;68189;47.190;27.558;2023-03-01T07:02:31;100946.77;;;21.92;46.86
78839;BME280;68189;47.190;27.558;2023-03-01T07:05:02;100942.71;;;21.95;46.77
78839;BME280;68189;47.190;27.558;2023-03-01T07:07:33;100939.16;;;21.98;46.65
78839;BME280;68189;47.190;27.558;2023-03-01T07:10:04;100938.92;;;22.02;46.61
78839;BME280;68189;47.190;27.558;2023-03-01T07:12:35;100935.46;;;22.11;46.41
78839;BME280;68189;47.190;27.558;2023-03-01T07:15:08;100933.16;;;22.14;46.40
78839;BME280;68189;47.190;27.558;2023-03-01T07:17:39;100932.77;;;22.15;46.28
78839;BME280;68189;47.190;27.558;2023-03-01T07:20:12;100935.83;;;22.14;46.08
78839;BME280;68189;47.190;27.558;2023-03-01T07:22:43;100937.20;;;22.17;45.98
78839;BME280;68189;47.190;27.558;2023-03-01T07:25:13;100936.67;;;22.28;45.82
78839;BME280;68189;47.190;27.558;2023-03-01T07:27:44;100934.53;;;22.33;45.72
78839;BME280;68189;47.190;27.558;2023-03-01T07:30:20;100927.39;;;22.37;45.73
78839;BME280;68189;47.190;27.558;2023-03-01T07:32:51;100923.95;;;22.44;45.61
78839;BME280;68189;47.190;27.558;2023-03-01T07:35:21;100920.49;;;22.53;45.46
78839;BME280;68189;47.190;27.558;2023-03-01T07:37:52;100924.58;;;22.50;45.46
78839;BME280;68189;47.190;27.558;2023-03-01T07:40:23;100923.58;;;22.47;45.42
78839;BME280;68189;47.190;27.558;2023-03-01T07:42:58;100920.46;;;22.43;45.48
78839;BME280;68189;47.190;27.558;2023-03-01T07:45:30;100915.21;;;22.42;45.38
78839;BME280;68189;47.190;27.558;2023-03-01T07:48:00;100916.91;;;22.41;45.45
78839;BME280;68189;47.190;27.558;2023-03-01T07:50:31;100922.27;;;22.37;45.44
78839;BME280;68189;47.190;27.558;2023-03-01T07:53:01;100921.90;;;22.34;45.39
78839;BME280;68189;47.190;27.558;2023-03-01T07:55:33;100922.47;;;22.52;45.23
78839;BME280;68189;47.190;27.558;2023-03-01T07:58:04;100926.46;;;22.51;45.22
78839;BME280;68189;47.190;27.558;2023-03-01T08:00:35;100921.80;;;22.47;45.24
78839;BME280;68189;47.190;27.558;2023-03-01T08:03:05;100919.66;;;22.47;45.19
78839;BME280;68189;47.190;27.558;2023-03-01T08:05:36;100914.02;;;22.44;45.27
78839;BME280;68189;47.190;27.558;2023-03-01T08:08:07;100906.69;;;22.45;45.14
78839;BME280;68189;47.190;27.558;2023-03-01T08:10:39;100902.54;;;22.44;45.18
78839;BME280;68189;47.190;27.558;2023-03-01T08:13:09;100903.64;;;22.40;45.30
78839;BME280;68189;47.190;27.558;2023-03-01T08:15:40;100904.48;;;22.38;45.21
78839;BME280;68189;47.190;27.558;2023-03-01T08:18:10;100902.58;;;22.35;45.20
78839;BME280;68189;47.190;27.558;2023-03-01T08:20:41;100898.65;;;22.33;45.29
78839;BME280;68189;47.190;27.558;2023-03-01T08:23:11;100889.42;;;22.33;45.21
78839;BME280;68189;47.190;27.558;2023-03-01T08:25:42;100889.82;;;22.35;45.27
78839;BME280;68189;47.190;27.558;2023-03-01T08:28:12;100885.11;;;22.36;45.24
78839;BME280;68189;47.190;27.558;2023-03-01T08:30:43;100883.53;;;22.36;45.29
78839;BME280;68189;47.190;27.558;2023-03-01T08:33:13;100882.09;;;22.37;45.22
78839;BME280;68189;47.190;27.558;2023-03-01T08:35:44;100877.69;;;22.45;45.20
78839;BME280;68189;47.190;27.558;2023-03-01T08:38:14;100878.34;;;22.50;45.08
78839;BME280;68189;47.190;27.558;2023-03-01T08:40:45;100877.02;;;22.49;45.08
78839;BME280;68189;47.190;27.558;2023-03-01T08:43:15;100868.80;;;22.53;45.06
78839;BME280;68189;47.190;27.558;2023-03-01T08:45:46;100863.76;;;22.64;44.97
78839;BME280;68189;47.190;27.558;2023-03-01T08:48:18;100862.19;;;22.74;44.96
78839;BME280;68189;47.190;27.558;2023-03-01T08:50:48;100859.10;;;22.77;44.80
78839;BME280;68189;47.190;27.558;2023-03-01T08:53:19;100861.73;;;22.81;44.85
78839;BME280;68189;47.190;27.558;2023-03-01T08:55:50;100855.95;;;22.85;44.65
78839;BME280;68189;47.190;27.558;2023-03-01T08:58:20;100857.06;;;22.86;44.77
78839;BME280;68189;47.190;27.558;2023-03-01T09:00:51;100852.45;;;22.89;44.76
78839;BME280;68189;47.190;27.558;2023-03-01T09:03:21;100851.02;;;22.92;44.65
78839;BME280;68189;47.190;27.558;2023-03-01T09:05:52;100848.39;;;22.97;44.66
78839;BME280;68189;47.190;27.558;2023-03-01T09:08:23;100845.80;;;23.03;44.50
78839;BME280;68189;47.190;27.558;2023-03-01T09:10:54;100848.41;;;23.04;44.48
78839;BME280;68189;47.190;27.558;2023-03-01T09:13:25;100848.75;;;23.12;44.49
78839;BME280;68189;47.190;27.558;2023-03-01T09:16:02;100846.63;;;23.14;44.46
78839;BME280;68189;47.190;27.558;2023-03-01T09:18:34;100843.00;;;23.23;44.41
78839;BME280;68189;47.190;27.558;2023-03-01T09:21:06;100842.36;;;23.27;44.48
78839;BME280;68189;47.190;27.558;2023-03-01T09:23:39;100839.95;;;23.36;44.40
78839;BME280;68189;47.190;27.558;2023-03-01T09:26:11;100838.64;;;23.46;44.20
78839;BME280;68189;47.190;27.558;2023-03-01T09:28:42;100837.27;;;23.50;44.11
78839;BME280;68189;47.190;27.558;2023-03-01T09:31:13;100834.38;;;23.56;44.02
78839;BME280;68189;47.190;27.558;2023-03-01T09:33:47;100838.22;;;23.67;43.96
78839;BME280;68189;47.190;27.558;2023-03-01T09:36:19;100832.88;;;23.67;44.04
78839;BME280;68189;47.190;27.558;2023-03-01T09:38:50;100832.93;;;23.76;43.92
78839;BME280;68189;47.190;27.558;2023-03-01T09:44:30;100832.61;;;23.87;43.96
78839;BME280;68189;47.190;27.558;2023-03-01T09:47:03;100836.94;;;23.91;43.87
78839;BME280;68189;47.190;27.558;2023-03-01T09:49:36;100837.95;;;23.92;43.83
78839;BME280;68189;47.190;27.558;2023-03-01T09:52:19;100838.98;;;23.92;43.71
78839;BME280;68189;47.190;27.558;2023-03-01T09:54:56;100834.95;;;24.06;43.66
78839;BME280;68189;47.190;27.558;2023-03-01T09:57:33;100833.61;;;24.24;43.65
78839;BME280;68189;47.190;27.558;2023-03-01T10:00:33;100829.08;;;24.50;43.44
78839;BME280;68189;47.190;27.558;2023-03-01T10:03:14;100829.23;;;24.76;43.25
78839;BME280;68189;47.190;27.558;2023-03-01T10:05:54;100826.98;;;24.87;42.95
78839;BME280;68189;47.190;27.558;2023-03-01T10:08:35;100829.60;;;24.98;42.67
78839;BME280;68189;47.190;27.558;2023-03-01T10:11:20;100827.34;;;24.86;41.43
78839;BME280;68189;47.190;27.558;2023-03-01T10:13:58;100825.08;;;24.65;40.47
78839;BME280;68189;47.190;27.558;2023-03-01T10:16:37;100822.79;;;24.60;41.17
78839;BME280;68189;47.190;27.558;2023-03-01T10:19:15;100823.84;;;24.49;42.01
78839;BME280;68189;47.190;27.558;2023-03-01T10:21:47;100822.66;;;24.55;41.87
78839;BME280;68189;47.190;27.558;2023-03-01T10:24:21;100826.80;;;24.73;41.92
78839;BME280;68189;47.190;27.558;2023-03-01T10:26:56;100821.17;;;24.70;42.01
78839;BME280;68189;47.190;27.558;2023-03-01T10:29:34;100815.14;;;24.56;42.18
78839;BME280;68189;47.190;27.558;2023-03-01T10:32:08;100817.70;;;24.60;42.29
78839;BME280;68189;47.190;27.558;2023-03-01T10:34:40;100811.46;;;24.85;42.08
78839;BME280;68189;47.190;27.558;2023-03-01T10:37:15;100810.23;;;24.73;42.04
78839;BME280;68189;47.190;27.558;2023-03-01T10:40:03;100811.94;;;24.58;42.41
78839;BME280;68189;47.190;27.558;2023-03-01T10:42:39;100807.30;;;24.45;42.49
78839;BME280;68189;47.190;27.558;2023-03-01T10:45:34;100805.36;;;24.33;42.66
78839;BME280;68189;47.190;27.558;2023-03-01T10:48:14;100804.99;;;24.24;42.49
78839;BME280;68189;47.190;27.558;2023-03-01T10:50:46;100800.17;;;24.24;42.75
78839;BME280;68189;47.190;27.558;2023-03-01T10:53:26;100795.13;;;24.21;42.93
78839;BME280;68189;47.190;27.558;2023-03-01T10:56:05;100793.21;;;24.15;43.18
78839;BME280;68189;47.190;27.558;2023-03-01T10:58:38;100787.27;;;24.28;42.97
78839;BME280;68189;47.190;27.558;2023-03-01T11:01:26;100781.42;;;24.53;42.78
78839;BME280;68189;47.190;27.558;2023-03-01T11:04:13;100775.92;;;24.44;42.66
78839;BME280;68189;47.190;27.558;2023-03-01T11:06:44;100775.94;;;24.34;42.77
78839;BME280;68189;47.190;27.558;2023-03-01T11:09:33;100765.16;;;24.27;42.86
78839;BME280;68189;47.190;27.558;2023-03-01T11:12:15;100766.42;;;24.20;43.01
78839;BME280;68189;47.190;27.558;2023-03-01T11:14:50;100766.52;;;24.12;42.92
78839;BME280;68189;47.190;27.558;2023-03-01T11:17:27;100772.39;;;24.05;42.87
78839;BME280;68189;47.190;27.558;2023-03-01T11:20:18;100768.86;;;23.97;42.89
78839;BME280;68189;47.190;27.558;2023-03-01T11:22:56;100763.06;;;23.90;42.85
78839;BME280;68189;47.190;27.558;2023-03-01T11:25:31;100759.44;;;23.83;43.07
78839;BME280;68189;47.190;27.558;2023-03-01T11:28:06;100760.23;;;23.78;42.92
78839;BME280;68189;47.190;27.558;2023-03-01T11:30:41;100765.29;;;23.72;43.06
78839;BME280;68189;47.190;27.558;2023-03-01T11:33:20;100759.83;;;23.64;43.17
78839;BME280;68189;47.190;27.558;2023-03-01T11:36:01;100761.25;;;23.57;43.21
78839;BME280;68189;47.190;27.558;2023-03-01T11:38:35;100758.50;;;23.51;43.36
78839;BME280;68189;47.190;27.558;2023-03-01T11:41:11;100759.56;;;23.46;43.45
78839;BME280;68189;47.190;27.558;2023-03-01T11:43:49;100757.79;;;23.42;43.56
78839;BME280;68189;47.190;27.558;2023-03-01T11:46:40;100756.80;;;23.38;43.52
78839;BME280;68189;47.190;27.558;2023-03-01T11:49:25;100748.58;;;23.34;43.54
78839;BME280;68189;47.190;27.558;2023-03-01T11:52:02;100745.51;;;23.30;43.65
78839;BME280;68189;47.190;27.558;2023-03-01T11:54:40;100746.41;;;23.25;43.70
78839;BME280;68189;47.190;27.558;2023-03-01T11:57:22;100746.52;;;23.19;43.75
78839;BME280;68189;47.190;27.558;2023-03-01T12:00:19;100740.37;;;23.15;43.74
78839;BME280;68189;47.190;27.558;2023-03-01T12:03:19;100733.27;;;23.11;43.78
78839;BME280;68189;47.190;27.558;2023-03-01T12:06:14;100726.20;;;23.06;44.08
78839;BME280;68189;47.190;27.558;2023-03-01T12:09:09;100725.45;;;23.01;44.05
78839;BME280;68189;47.190;27.558;2023-03-01T12:12:06;100724.65;;;22.97;44.11
78839;BME280;68189;47.190;27.558;2023-03-01T12:14:55;100723.84;;;22.94;44.15
78839;BME280;68189;47.190;27.558;2023-03-01T12:18:00;100716.81;;;22.94;44.06
78839;BME280;68189;47.190;27.558;2023-03-01T12:20:39;100711.36;;;23.00;44.16
78839;BME280;68189;47.190;27.558;2023-03-01T12:23:29;100707.85;;;23.04;44.13
78839;BME280;68189;47.190;27.558;2023-03-01T12:26:13;100706.22;;;23.17;43.92
78839;BME280;68189;47.190;27.558;2023-03-01T12:29:13;100709.02;;;23.20;43.87
78839;BME280;68189;47.190;27.558;2023-03-01T12:32:12;100709.92;;;23.20;44.02
78839;BME280;68189;47.190;27.558;2023-03-01T12:37:49;100707.80;;;23.15;44.03
78839;BME280;68189;47.190;27.558;2023-03-01T12:40:50;100719.93;;;23.14;44.13
78839;BME280;68189;47.190;27.558;2023-03-01T12:43:36;100717.59;;;23.12;43.98
78839;BME280;68189;47.190;27.558;2023-03-01T12:46:24;100713.66;;;23.27;43.81
78839;BME280;68189;47.190;27.558;2023-03-01T12:49:05;100707.91;;;23.37;43.67
78839;BME280;68189;47.190;27.558;2023-03-01T12:51:39;100709.90;;;23.39;43.52
78839;BME280;68189;47.190;27.558;2023-03-01T12:54:16;100713.17;;;23.38;43.60
78839;BME280;68189;47.190;27.558;2023-03-01T12:56:51;100711.88;;;23.34;43.75
78839;BME280;68189;47.190;27.558;2023-03-01T12:59:26;100709.07;;;23.36;43.69
78839;BME280;68189;47.190;27.558;2023-03-01T13:05:16;100695.47;;;23.45;43.72
78839;BME280;68189;47.190;27.558;2023-03-01T13:07:58;100695.88;;;23.51;43.59
78839;BME280;68189;47.190;27.558;2023-03-01T13:10:38;100695.66;;;23.54;43.25
78839;BME280;68189;47.190;27.558;2023-03-01T13:13:21;100696.16;;;23.55;43.12
78839;BME280;68189;47.190;27.558;2023-03-01T13:15:52;100694.10;;;23.56;42.69
78839;BME280;68189;47.190;27.558;2023-03-01T13:18:34;100696.52;;;23.57;42.62
78839;BME280;68189;47.190;27.558;2023-03-01T13:21:06;100694.96;;;23.56;42.47
78839;BME280;68189;47.190;27.558;2023-03-01T13:23:39;100697.48;;;23.54;42.36
78839;BME280;68189;47.190;27.558;2023-03-01T13:26:14;100702.20;;;23.50;42.27